Time;durP1;ratioP1;P1;durP2;ratioP2;P2;SDS_P1;SDS_P2;PMS_P1;PMS_P2;Temp;Humidity;BMP_temperature;BMP_pressure;BME280_temperature;BME280_humidity;BME280_pressure;Samples;Min_cycle;Max_cycle;Signal;HPM_P1;HPM_P2
2022/09/29 00:01:20;;;;;;;4.17;2.97;;;6.70;99.90;;;;;;5065254;23;20715;-67
2022/09/29 00:03:22;;;;;;;3.67;2.63;;;6.70;99.90;;;;;;5065967;23;20194;-68
2022/09/29 00:05:23;;;;;;;3.73;2.47;;;6.70;99.90;;;;;;5065938;23;20158;-67
2022/09/29 00:07:23;;;;;;;4.43;2.90;;;6.80;99.90;;;;;;5066054;23;20393;-67
2022/09/29 00:09:24;;;;;;;2.60;2.13;;;6.90;99.90;;;;;;5066252;23;20158;-68
2022/09/29 00:11:24;;;;;;;3.33;2.40;;;6.80;99.90;;;;;;5065491;23;20171;-67
2022/09/29 00:13:25;;;;;;;2.70;2.30;;;6.90;99.90;;;;;;5066958;23;20182;-68
2022/09/29 00:15:25;;;;;;;3.37;2.43;;;6.90;99.90;;;;;;5066378;23;20675;-67
2022/09/29 00:17:26;;;;;;;3.83;2.43;;;6.80;99.90;;;;;;5066209;23;20173;-68
2022/09/29 00:19:27;;;;;;;4.03;2.50;;;6.80;99.90;;;;;;5066372;23;20484;-67
2022/09/29 00:21:28;;;;;;;4.37;2.30;;;6.70;99.90;;;;;;5065289;23;20190;-68
2022/09/29 00:23:30;;;;;;;2.73;2.10;;;6.80;99.90;;;;;;5066327;23;20425;-67
2022/09/29 00:25:30;;;;;;;4.87;2.27;;;6.80;99.90;;;;;;5066504;23;20216;-68
2022/09/29 00:27:31;;;;;;;2.57;1.93;;;6.80;99.90;;;;;;5066342;23;20386;-67
2022/09/29 00:29:31;;;;;;;5.30;2.60;;;6.60;99.90;;;;;;5066071;23;20491;-67
2022/09/29 00:31:33;;;;;;;3.60;2.10;;;6.70;99.90;;;;;;5065314;23;20596;-68
2022/09/29 00:33:35;;;;;;;4.53;2.97;;;6.80;99.90;;;;;;5065734;23;20646;-68
2022/09/29 00:35:36;;;;;;;5.13;2.47;;;6.90;99.90;;;;;;5040024;23;20869;-67
2022/09/29 00:37:39;;;;;;;4.07;2.40;;;6.90;99.90;;;;;;5065619;23;20394;-68
2022/09/29 00:39:39;;;;;;;3.40;2.33;;;6.80;99.90;;;;;;5065866;23;20241;-68
2022/09/29 00:41:41;;;;;;;4.50;2.47;;;6.80;99.90;;;;;;5065073;23;20941;-68
2022/09/29 00:43:51;;;;;;;3.57;2.33;;;6.90;99.90;;;;;;5066371;23;20182;-68
2022/09/29 00:45:53;;;;;;;3.30;2.47;;;6.90;99.90;;;;;;5065993;23;20390;-68
2022/09/29 00:48:06;;;;;;;4.27;2.63;;;6.90;99.90;;;;;;5066013;23;20860;-67
2022/09/29 00:50:26;;;;;;;2.40;2.13;;;6.90;99.90;;;;;;5065883;23;20441;-68
2022/09/29 00:52:50;;;;;;;3.27;2.43;;;6.80;99.90;;;;;;5065568;23;20421;-67
2022/09/29 00:55:14;;;;;;;2.87;2.40;;;6.80;99.90;;;;;;5066288;23;20390;-68
2022/09/29 00:57:20;;;;;;;3.43;2.47;;;6.80;99.90;;;;;;5048186;23;20410;-67
2022/09/29 00:59:30;;;;;;;4.27;2.30;;;6.70;99.90;;;;;;5066473;23;20718;-67
2022/09/29 01:01:31;;;;;;;4.03;2.70;;;6.80;99.90;;;;;;5039436;23;20513;-67
2022/09/29 01:03:37;;;;;;;5.77;2.53;;;6.80;99.90;;;;;;5066031;23;20428;-67
2022/09/29 01:05:44;;;;;;;4.37;2.40;;;6.70;99.90;;;;;;5066270;23;20386;-68
2022/09/29 01:07:45;;;;;;;2.80;2.50;;;6.70;99.90;;;;;;5067150;23;20413;-68
2022/09/29 01:09:46;;;;;;;3.03;2.23;;;6.80;99.90;;;;;;5067167;23;20400;-68
2022/09/29 01:11:47;;;;;;;4.50;2.17;;;6.80;99.90;;;;;;5066772;23;20158;-67
2022/09/29 01:13:48;;;;;;;2.50;2.27;;;6.80;99.90;;;;;;5067812;23;20423;-67
2022/09/29 01:15:49;;;;;;;3.43;2.40;;;6.90;99.90;;;;;;5067308;23;20567;-68
2022/09/29 01:17:49;;;;;;;5.17;2.27;;;6.80;99.90;;;;;;5067673;23;20394;-67
2022/09/29 01:20:13;;;;;;;7.13;2.73;;;6.80;99.90;;;;;;5067596;23;20179;-68
2022/09/29 01:22:32;;;;;;;2.77;2.00;;;6.80;99.90;;;;;;5067256;23;20190;-67
2022/09/29 01:24:52;;;;;;;3.73;2.40;;;6.80;99.90;;;;;;5067307;23;20721;-67
2022/09/29 01:27:10;;;;;;;4.07;3.63;;;6.90;99.90;;;;;;5067522;23;20421;-67
2022/09/29 01:29:44;;;;;;;5.60;1.97;;;6.90;99.90;;;;;;5067209;23;20536;-67
2022/09/29 01:32:17;;;;;;;2.10;1.90;;;7.00;99.90;;;;;;5066775;23;20421;-67
2022/09/29 01:34:42;;;;;;;3.13;2.23;;;6.90;99.90;;;;;;5037756;23;20411;-67
2022/09/29 01:37:13;;;;;;;3.10;2.33;;;6.90;99.90;;;;;;5043161;23;20523;-68
2022/09/29 01:39:26;;;;;;;3.03;2.33;;;6.90;99.90;;;;;;5041523;23;20391;-67
2022/09/29 01:41:35;;;;;;;3.67;2.20;;;6.90;99.90;;;;;;5042074;23;20446;-67
2022/09/29 01:43:53;;;;;;;2.80;1.80;;;6.80;99.90;;;;;;5043108;23;20410;-67
2022/09/29 01:46:01;;;;;;;2.73;2.10;;;6.90;99.90;;;;;;5043346;23;20383;-67
2022/09/29 01:48:18;;;;;;;5.77;2.20;;;6.80;99.90;;;;;;5043209;23;20411;-68
2022/09/29 01:50:28;;;;;;;3.00;2.17;;;6.90;99.90;;;;;;5042736;23;20390;-67
2022/09/29 01:52:32;;;;;;;2.80;2.10;;;6.90;99.90;;;;;;5043392;23;20211;-67
2022/09/29 01:54:47;;;;;;;2.33;1.97;;;6.90;99.90;;;;;;5043300;23;20849;-67
2022/09/29 01:57:01;;;;;;;3.67;2.30;;;6.90;99.90;;;;;;5043166;23;20488;-67
2022/09/29 01:59:28;;;;;;;5.40;2.30;;;6.90;99.90;;;;;;5043436;23;20175;-67
2022/09/29 02:01:34;;;;;;;4.17;2.40;;;6.90;99.90;;;;;;5030157;23;20501;-67
2022/09/29 02:03:40;;;;;;;3.03;2.10;;;6.90;99.90;;;;;;5043456;23;20474;-67
2022/09/29 02:06:00;;;;;;;2.27;1.87;;;6.90;99.90;;;;;;5043101;23;20486;-67
2022/09/29 02:08:39;;;;;;;2.53;2.00;;;6.90;99.90;;;;;;5042680;23;20806;-67
2022/09/29 02:11:11;;;;;;;3.03;2.03;;;6.90;99.90;;;;;;5039868;23;20399;-67
2022/09/29 02:13:14;;;;;;;2.00;1.80;;;7.00;99.90;;;;;;5041341;23;21074;-67
2022/09/29 02:15:21;;;;;;;3.60;2.03;;;6.90;99.90;;;;;;5042437;23;20388;-67
2022/09/29 02:17:36;;;;;;;2.50;2.00;;;6.90;99.90;;;;;;5042566;23;20402;-67
2022/09/29 02:19:44;;;;;;;2.50;2.10;;;7.00;99.90;;;;;;5042688;23;21046;-67
2022/09/29 02:21:44;;;;;;;2.30;1.80;;;7.10;99.90;;;;;;5038495;23;20441;-67
2022/09/29 02:23:45;;;;;;;6.10;2.10;;;7.00;99.90;;;;;;5041983;23;20852;-67
2022/09/29 02:25:47;;;;;;;5.90;2.30;;;7.00;99.90;;;;;;5042274;23;20160;-68
2022/09/29 02:27:49;;;;;;;2.40;1.90;;;7.00;99.90;;;;;;5042330;23;20213;-67
2022/09/29 02:29:50;;;;;;;3.87;1.93;;;7.00;99.90;;;;;;5040630;23;20249;-67
2022/09/29 02:31:51;;;;;;;3.00;2.03;;;6.90;99.90;;;;;;5041701;23;20398;-67
2022/09/29 02:33:51;;;;;;;2.63;2.00;;;6.90;99.90;;;;;;5060768;23;20250;-67
2022/09/29 02:36:12;;;;;;;2.80;1.83;;;6.80;99.90;;;;;;5066259;23;20241;-67
2022/09/29 02:38:29;;;;;;;2.50;1.77;;;6.80;99.90;;;;;;5066048;23;20185;-67
2022/09/29 02:40:45;;;;;;;2.67;1.97;;;6.80;99.90;;;;;;5065839;23;20950;-67
2022/09/29 02:42:58;;;;;;;2.77;2.07;;;6.80;99.90;;;;;;5066444;23;20418;-67
2022/09/29 02:45:14;;;;;;;5.57;2.17;;;6.80;99.90;;;;;;5066229;23;20446;-67
2022/09/29 02:47:34;;;;;;;7.57;2.47;;;6.90;99.90;;;;;;5066358;23;20860;-67
2022/09/29 02:50:16;;;;;;;4.47;2.70;;;6.90;99.90;;;;;;5066235;23;20165;-67
2022/09/29 02:52:23;;;;;;;2.73;1.83;;;7.00;99.90;;;;;;5066059;23;20390;-67
2022/09/29 02:54:34;;;;;;;3.00;2.47;;;7.00;99.90;;;;;;5066762;23;20544;-68
2022/09/29 02:56:58;;;;;;;3.30;2.20;;;7.00;99.90;;;;;;5066466;23;20517;-67
2022/09/29 02:59:05;;;;;;;6.40;2.40;;;7.00;99.90;;;;;;5066087;23;20382;-67
2022/09/29 03:01:06;;;;;;;2.73;2.13;;;7.10;99.90;;;;;;5065031;23;20816;-67
2022/09/29 03:03:07;;;;;;;3.33;2.40;;;7.10;99.90;;;;;;5066014;23;20419;-67
2022/09/29 03:05:20;;;;;;;3.27;2.40;;;7.00;99.90;;;;;;5066143;23;20390;-67
2022/09/29 03:07:21;;;;;;;4.27;1.90;;;7.00;99.90;;;;;;5066170;23;20670;-67
2022/09/29 03:09:21;;;;;;;3.77;1.87;;;7.00;99.90;;;;;;5066209;23;20384;-67
2022/09/29 03:11:22;;;;;;;3.03;2.30;;;7.10;99.90;;;;;;5065320;23;20378;-67
2022/09/29 03:13:22;;;;;;;3.50;1.80;;;7.00;99.90;;;;;;5066616;23;20209;-67
2022/09/29 03:15:23;;;;;;;3.80;2.23;;;7.00;99.90;;;;;;5040417;23;20693;-66
2022/09/29 03:17:24;;;;;;;3.57;2.13;;;7.00;99.90;;;;;;5066083;23;20499;-67
2022/09/29 03:19:24;;;;;;;2.20;1.63;;;7.00;99.90;;;;;;5066246;23;20879;-67
2022/09/29 03:21:25;;;;;;;6.93;3.03;;;7.00;99.90;;;;;;5039456;23;20199;-67
2022/09/29 03:23:25;;;;;;;3.57;1.90;;;7.00;99.90;;;;;;5065896;23;20190;-67
2022/09/29 03:25:26;;;;;;;2.93;2.37;;;7.00;99.90;;;;;;5066047;23;20630;-67
2022/09/29 03:27:26;;;;;;;3.27;2.27;;;7.00;99.90;;;;;;5065957;23;20698;-67
2022/09/29 03:29:27;;;;;;;3.73;2.50;;;7.00;99.90;;;;;;5065806;23;20208;-67
2022/09/29 03:31:28;;;;;;;3.77;2.60;;;6.90;99.90;;;;;;5065095;23;20163;-67
2022/09/29 03:33:29;;;;;;;3.77;2.50;;;6.90;99.90;;;;;;5066070;23;20198;-67
2022/09/29 03:35:29;;;;;;;5.07;2.40;;;7.00;99.90;;;;;;5066212;23;20325;-67
2022/09/29 03:37:30;;;;;;;7.77;2.77;;;7.10;99.90;;;;;;5065917;23;20164;-67
2022/09/29 03:39:30;;;;;;;6.30;3.37;;;7.20;99.90;;;;;;5066107;23;20162;-67
2022/09/29 03:41:31;;;;;;;5.83;4.13;;;7.20;99.90;;;;;;5065313;23;20194;-67
2022/09/29 03:43:32;;;;;;;6.47;4.10;;;7.20;99.90;;;;;;5066215;23;20175;-67
2022/09/29 03:45:32;;;;;;;5.07;3.37;;;7.10;99.90;;;;;;5066011;23;20608;-67
2022/09/29 03:47:33;;;;;;;5.50;3.37;;;7.10;99.90;;;;;;5066248;23;20492;-67
2022/09/29 03:49:34;;;;;;;6.73;3.70;;;7.10;99.90;;;;;;5065948;23;20189;-67
2022/09/29 03:51:35;;;;;;;7.07;4.40;;;7.10;99.90;;;;;;5065144;23;20168;-67
2022/09/29 03:53:36;;;;;;;4.73;3.20;;;7.10;99.90;;;;;;5065916;23;21204;-67
2022/09/29 03:55:36;;;;;;;6.30;3.43;;;7.10;99.90;;;;;;5065963;23;20170;-67
2022/09/29 03:57:37;;;;;;;7.13;3.83;;;7.10;99.90;;;;;;5066056;23;20162;-67
2022/09/29 03:59:37;;;;;;;3.93;3.00;;;7.10;99.90;;;;;;5065915;23;20158;-67
2022/09/29 04:01:38;;;;;;;5.77;3.03;;;7.10;99.90;;;;;;5065141;23;20651;-67
2022/09/29 04:03:38;;;;;;;7.20;3.37;;;7.30;99.90;;;;;;5065918;23;20206;-67
2022/09/29 04:05:39;;;;;;;5.87;3.27;;;7.50;99.90;;;;;;5040036;23;20163;-67
2022/09/29 04:07:40;;;;;;;8.70;4.50;;;7.40;99.90;;;;;;5066249;23;20163;-67
2022/09/29 04:09:41;;;;;;;6.20;3.83;;;7.40;99.90;;;;;;5065931;23;20203;-67
2022/09/29 04:11:42;;;;;;;4.80;3.23;;;7.30;99.90;;;;;;5065074;23;20175;-67
2022/09/29 04:13:42;;;;;;;7.30;3.27;;;7.20;99.90;;;;;;5065813;23;20405;-67
2022/09/29 04:15:43;;;;;;;5.27;3.87;;;7.20;99.90;;;;;;5065809;23;20233;-67
2022/09/29 04:17:43;;;;;;;8.23;4.63;;;7.20;99.90;;;;;;5065804;23;20172;-67
2022/09/29 04:19:44;;;;;;;5.30;3.40;;;7.20;99.90;;;;;;5065420;23;20212;-67
2022/09/29 04:21:44;;;;;;;5.80;3.87;;;7.20;99.90;;;;;;5064824;23;20528;-67
2022/09/29 04:23:46;;;;;;;7.57;4.43;;;7.10;99.90;;;;;;5066020;23;20460;-67
2022/09/29 04:25:46;;;;;;;8.97;4.93;;;7.20;99.90;;;;;;5065840;23;20163;-67
2022/09/29 04:27:47;;;;;;;9.60;5.00;;;7.20;99.90;;;;;;5065802;23;20164;-67
2022/09/29 04:29:47;;;;;;;11.03;5.27;;;7.20;99.90;;;;;;5065740;23;20188;-67
2022/09/29 04:31:48;;;;;;;8.87;4.70;;;7.20;99.90;;;;;;5065097;23;20162;-67
2022/09/29 04:33:48;;;;;;;9.23;4.67;;;7.20;99.90;;;;;;5065907;23;20338;-67
2022/09/29 04:35:50;;;;;;;8.87;4.83;;;7.20;99.90;;;;;;5065212;23;20158;-67
2022/09/29 04:37:55;;;;;;;17.60;6.63;;;7.30;99.90;;;;;;5065564;23;20568;-67
2022/09/29 04:39:56;;;;;;;11.07;6.70;;;7.30;99.90;;;;;;5039912;23;20801;-67
2022/09/29 04:41:57;;;;;;;9.70;6.03;;;7.20;99.90;;;;;;5065761;23;20272;-67
2022/09/29 04:43:57;;;;;;;9.37;5.60;;;7.20;99.90;;;;;;5067363;23;20218;-67
2022/09/29 04:46:06;;;;;;;8.50;4.50;;;7.30;99.90;;;;;;5067400;23;20903;-67
2022/09/29 04:48:06;;;;;;;7.50;4.70;;;7.20;99.90;;;;;;5068999;23;20158;-67
2022/09/29 04:50:08;;;;;;;6.73;4.30;;;7.20;99.90;;;;;;5069103;23;20378;-67
2022/09/29 04:52:11;;;;;;;5.57;4.17;;;7.20;99.90;;;;;;5042749;23;20169;-66
2022/09/29 04:54:12;;;;;;;6.80;3.77;;;7.10;99.90;;;;;;5069668;23;20232;-67
2022/09/29 04:56:12;;;;;;;8.67;4.33;;;7.20;99.90;;;;;;5069752;23;20833;-67
2022/09/29 04:58:14;;;;;;;10.33;4.40;;;7.20;99.90;;;;;;5069563;23;20646;-67
2022/09/29 05:00:15;;;;;;;8.73;4.53;;;7.20;99.90;;;;;;5068801;23;20272;-67
2022/09/29 05:02:16;;;;;;;8.73;4.80;;;7.20;99.90;;;;;;5069264;23;21026;-66
2022/09/29 05:04:16;;;;;;;7.07;4.50;;;7.30;99.90;;;;;;5068096;23;20460;-67
2022/09/29 05:06:17;;;;;;;7.53;4.20;;;7.30;99.90;;;;;;5067198;23;20162;-67
2022/09/29 05:08:17;;;;;;;11.40;6.17;;;7.30;99.90;;;;;;5067293;23;20170;-67
2022/09/29 05:10:18;;;;;;;15.30;9.20;;;7.30;99.90;;;;;;5066324;23;20613;-67
2022/09/29 05:12:19;;;;;;;11.77;6.60;;;7.20;99.90;;;;;;5041410;23;20183;-67
2022/09/29 05:14:20;;;;;;;9.97;5.83;;;7.20;99.90;;;;;;5067457;23;20166;-67
2022/09/29 05:16:20;;;;;;;9.13;5.40;;;7.10;99.90;;;;;;5067157;23;20162;-67
2022/09/29 05:18:21;;;;;;;9.60;4.80;;;7.20;99.90;;;;;;5067085;23;20167;-67
2022/09/29 05:20:22;;;;;;;8.77;5.10;;;7.20;99.90;;;;;;5066075;23;20164;-67
2022/09/29 05:22:23;;;;;;;11.60;5.83;;;7.20;99.90;;;;;;5066797;23;20202;-67
2022/09/29 05:24:24;;;;;;;11.10;6.00;;;7.20;99.90;;;;;;5067277;23;20216;-67
2022/09/29 05:26:25;;;;;;;11.20;5.73;;;7.20;99.90;;;;;;5067120;23;20166;-67
2022/09/29 05:28:25;;;;;;;9.63;5.23;;;7.30;99.90;;;;;;5067283;23;20164;-67
2022/09/29 05:30:26;;;;;;;8.80;5.30;;;7.30;99.90;;;;;;5066139;23;20162;-67
2022/09/29 05:32:26;;;;;;;7.60;5.00;;;7.20;99.90;;;;;;5066530;23;20186;-67
2022/09/29 05:34:27;;;;;;;10.10;5.90;;;7.30;99.90;;;;;;5067488;23;20257;-67
2022/09/29 05:36:27;;;;;;;9.37;5.63;;;7.30;99.90;;;;;;5066887;23;20169;-67
2022/09/29 05:38:28;;;;;;;8.67;5.20;;;7.30;99.90;;;;;;5067126;23;20168;-67
2022/09/29 05:40:29;;;;;;;8.23;5.00;;;7.30;99.90;;;;;;5066283;23;20635;-67
2022/09/29 05:42:30;;;;;;;10.77;5.53;;;7.20;99.90;;;;;;5040890;23;20207;-67
2022/09/29 05:44:32;;;;;;;10.23;5.37;;;7.20;99.90;;;;;;5067041;23;20160;-68
2022/09/29 05:46:33;;;;;;;6.33;4.40;;;7.20;99.90;;;;;;5067155;23;20613;-67
2022/09/29 05:48:33;;;;;;;8.80;5.00;;;7.20;99.90;;;;;;5066859;23;20470;-67
2022/09/29 05:50:40;;;;;;;8.97;5.90;;;7.20;99.90;;;;;;5066183;23;20158;-67
2022/09/29 05:52:41;;;;;;;13.30;6.87;;;7.20;99.90;;;;;;5066581;23;20178;-67
2022/09/29 05:54:41;;;;;;;12.07;5.97;;;7.20;99.90;;;;;;5066898;23;20463;-67
2022/09/29 05:56:42;;;;;;;14.03;6.57;;;7.20;99.90;;;;;;5067153;23;20604;-68
2022/09/29 05:58:42;;;;;;;9.80;4.80;;;7.20;99.90;;;;;;5067770;23;20154;-68
2022/09/29 06:00:43;;;;;;;8.30;5.43;;;7.20;99.90;;;;;;5066594;23;20472;-68
2022/09/29 06:02:44;;;;;;;7.03;4.50;;;7.50;99.90;;;;;;5066600;23;20175;-67
2022/09/29 06:04:44;;;;;;;10.80;5.80;;;7.60;99.90;;;;;;5067026;23;20186;-68
2022/09/29 06:06:46;;;;;;;10.30;6.27;;;7.40;99.90;;;;;;5067029;23;20193;-67
2022/09/29 06:08:48;;;;;;;8.53;5.40;;;7.40;99.90;;;;;;5066822;23;20155;-68
2022/09/29 06:10:48;;;;;;;7.97;5.13;;;7.30;99.90;;;;;;5066060;23;20476;-68
2022/09/29 06:12:49;;;;;;;9.60;5.70;;;7.30;99.90;;;;;;5066663;23;20190;-69
2022/09/29 06:14:50;;;;;;;11.33;5.47;;;7.30;99.90;;;;;;5066809;23;20639;-69
2022/09/29 06:16:50;;;;;;;12.77;7.17;;;7.40;99.90;;;;;;5066943;23;20164;-69
2022/09/29 06:18:51;;;;;;;16.03;6.53;;;7.40;99.90;;;;;;5066887;23;20180;-69
2022/09/29 06:20:52;;;;;;;29.70;15.93;;;7.40;99.90;;;;;;5040085;23;20233;-69
2022/09/29 06:22:53;;;;;;;22.43;10.87;;;7.40;99.90;;;;;;5067061;23;20643;-69
2022/09/29 06:24:54;;;;;;;9.20;5.60;;;7.50;99.90;;;;;;5066472;23;20610;-69
2022/09/29 06:26:54;;;;;;;8.20;5.03;;;7.40;99.90;;;;;;5066664;23;20251;-69
2022/09/29 06:28:56;;;;;;;9.30;4.40;;;7.50;99.90;;;;;;5066677;23;20569;-69
2022/09/29 06:31:02;;;;;;;6.80;4.77;;;7.50;99.90;;;;;;5066176;23;20175;-69
2022/09/29 06:33:03;;;;;;;5.93;4.33;;;7.50;99.90;;;;;;5066748;23;20225;-69
2022/09/29 06:37:34;;;;;;;9.57;5.43;;;7.60;99.90;;;;;;5066725;23;20219;-69
2022/09/29 06:39:36;;;;;;;8.20;5.80;;;7.50;99.90;;;;;;5064986;23;20400;-69
2022/09/29 06:41:36;;;;;;;8.20;5.73;;;7.50;99.90;;;;;;5065570;23;20817;-69
2022/09/29 06:43:37;;;;;;;8.10;4.97;;;7.50;99.90;;;;;;5066999;23;20503;-69
2022/09/29 06:45:37;;;;;;;6.80;4.40;;;7.60;99.90;;;;;;5066399;23;20680;-69
2022/09/29 06:47:38;;;;;;;6.80;4.70;;;7.60;99.90;;;;;;5066484;23;20626;-69
2022/09/29 06:49:38;;;;;;;7.63;5.80;;;7.60;99.90;;;;;;5066615;23;20160;-68
2022/09/29 06:51:39;;;;;;;7.40;4.40;;;7.70;99.90;;;;;;5039472;23;20456;-68
2022/09/29 06:53:40;;;;;;;8.73;5.33;;;7.70;99.90;;;;;;5066372;23;20220;-68
2022/09/29 06:55:41;;;;;;;8.17;5.77;;;7.80;99.90;;;;;;5066858;23;20570;-68
2022/09/29 06:57:41;;;;;;;7.80;5.93;;;8.00;99.90;;;;;;5066828;23;20241;-68
2022/09/29 06:59:42;;;;;;;10.27;5.07;;;7.90;99.90;;;;;;5066897;23;20208;-68
2022/09/29 07:01:42;;;;;;;8.40;5.43;;;8.00;99.90;;;;;;5065828;23;20272;-69
2022/09/29 07:03:43;;;;;;;10.63;6.07;;;8.00;99.90;;;;;;5066622;23;20653;-68
2022/09/29 07:05:43;;;;;;;7.20;5.20;;;8.00;99.90;;;;;;5040038;23;20249;-69
2022/09/29 07:07:47;;;;;;;9.30;5.67;;;8.10;99.90;;;;;;5066315;23;20161;-68
2022/09/29 07:09:48;;;;;;;9.37;5.20;;;8.10;99.90;;;;;;5066344;23;20485;-68
2022/09/29 07:11:50;;;;;;;7.80;5.40;;;8.10;99.90;;;;;;5065467;23;20175;-68
2022/09/29 07:13:51;;;;;;;7.83;5.40;;;8.10;99.90;;;;;;5066086;23;20186;-68
2022/09/29 07:15:53;;;;;;;8.60;5.07;;;8.10;99.90;;;;;;5066256;23;20206;-68
2022/09/29 07:17:53;;;;;;;6.63;5.03;;;8.30;99.90;;;;;;5066170;23;20252;-68
2022/09/29 07:19:55;;;;;;;5.93;4.37;;;8.30;99.90;;;;;;5066261;23;20473;-68
2022/09/29 07:21:55;;;;;;;8.43;4.13;;;8.40;99.90;;;;;;5039682;23;20201;-68
2022/09/29 07:23:56;;;;;;;8.03;4.47;;;8.50;99.90;;;;;;5066193;23;20178;-68
2022/09/29 07:25:56;;;;;;;5.53;4.40;;;8.40;99.90;;;;;;5066247;23;20552;-68
2022/09/29 07:27:57;;;;;;;5.37;4.17;;;8.60;99.90;;;;;;5066017;23;20161;-68
2022/09/29 07:29:58;;;;;;;4.97;3.70;;;8.70;99.90;;;;;;5066145;23;20158;-68
2022/09/29 07:31:58;;;;;;;4.40;3.27;;;8.70;99.90;;;;;;5065527;23;20221;-68
2022/09/29 07:33:59;;;;;;;4.17;3.30;;;8.60;99.90;;;;;;5065904;23;20224;-68
2022/09/29 07:36:00;;;;;;;4.30;3.77;;;8.70;99.90;;;;;;5066117;23;20216;-68
2022/09/29 07:38:00;;;;;;;5.10;4.10;;;8.90;99.90;;;;;;5066159;23;20504;-68
2022/09/29 07:40:01;;;;;;;4.93;3.87;;;9.00;99.90;;;;;;5066134;23;20163;-68
2022/09/29 07:42:02;;;;;;;5.37;3.83;;;9.00;99.90;;;;;;5065303;23;20702;-68
2022/09/29 07:44:02;;;;;;;5.53;4.30;;;8.90;99.90;;;;;;5066066;23;20192;-68
2022/09/29 07:46:03;;;;;;;5.43;4.50;;;9.00;99.90;;;;;;5066064;23;20159;-68
2022/09/29 07:48:04;;;;;;;8.33;4.57;;;9.00;99.90;;;;;;5066067;23;20166;-68
2022/09/29 07:50:05;;;;;;;7.37;4.33;;;9.10;99.90;;;;;;5065850;23;20162;-68
2022/09/29 07:52:05;;;;;;;4.90;3.80;;;9.00;99.90;;;;;;5065332;23;20194;-68
2022/09/29 07:54:06;;;;;;;5.10;3.63;;;8.90;99.90;;;;;;5066296;23;20729;-68
2022/09/29 07:56:12;;;;;;;4.17;3.37;;;8.70;99.90;;;;;;5064937;23;20782;-68
2022/09/29 07:58:13;;;;;;;5.17;3.67;;;8.90;99.90;;;;;;5043505;23;20165;-67
2022/09/29 08:00:16;;;;;;;4.60;3.40;;;8.80;99.90;;;;;;5045506;23;20162;-66
2022/09/29 08:02:16;;;;;;;4.83;3.47;;;8.90;99.90;;;;;;5048359;23;20724;-67
2022/09/29 08:04:17;;;;;;;4.70;3.03;;;8.90;99.90;;;;;;5048697;23;20159;-68
2022/09/29 08:06:18;;;;;;;5.40;3.50;;;8.90;99.90;;;;;;5048626;23;20165;-67
2022/09/29 08:08:19;;;;;;;4.20;3.17;;;9.20;99.90;;;;;;5056244;23;20820;-68
2022/09/29 08:10:19;;;;;;;4.83;3.57;;;9.40;99.90;;;;;;5064030;23;20205;-68
2022/09/29 08:12:20;;;;;;;5.97;3.73;;;9.70;99.90;;;;;;5064772;23;20885;-69
2022/09/29 08:14:21;;;;;;;5.07;3.03;;;9.80;99.90;;;;;;5065397;23;20167;-68
2022/09/29 08:16:22;;;;;;;4.80;2.60;;;9.30;99.90;;;;;;5066097;23;20186;-68
2022/09/29 08:18:23;;;;;;;4.33;2.30;;;9.40;99.90;;;;;;5068173;23;20173;-69
2022/09/29 08:20:25;;;;;;;5.30;2.50;;;9.40;99.90;;;;;;5067134;23;20669;-68
2022/09/29 08:22:25;;;;;;;3.47;2.27;;;9.20;99.90;;;;;;5067997;23;20663;-68
2022/09/29 08:24:27;;;;;;;3.10;2.67;;;9.20;99.90;;;;;;5068288;23;20213;-68
2022/09/29 08:26:27;;;;;;;4.57;2.80;;;9.20;99.90;;;;;;5068310;23;20154;-67
2022/09/29 08:28:29;;;;;;;3.67;2.73;;;9.20;99.90;;;;;;5068405;23;20158;-69
2022/09/29 08:30:30;;;;;;;4.70;2.73;;;9.50;99.90;;;;;;5041578;23;20171;-70
2022/09/29 08:32:30;;;;;;;4.57;2.90;;;9.30;99.90;;;;;;5067375;23;20245;-69
2022/09/29 08:34:31;;;;;;;3.30;2.53;;;9.20;99.90;;;;;;5068082;23;20248;-68
2022/09/29 08:36:32;;;;;;;2.87;2.57;;;9.00;99.90;;;;;;5068039;23;20182;-68
2022/09/29 08:38:32;;;;;;;4.37;2.83;;;9.30;99.90;;;;;;5068019;23;20165;-68
2022/09/29 08:40:33;;;;;;;3.73;2.67;;;9.40;99.90;;;;;;5067110;23;20185;-68
2022/09/29 08:43:01;;;;;;;3.80;3.00;;;9.70;99.90;;;;;;5067887;23;20194;-68
2022/09/29 08:45:10;;;;;;;3.70;2.97;;;9.70;99.90;;;;;;5067962;23;20166;-69
2022/09/29 08:47:10;;;;;;;5.23;2.73;;;9.60;99.90;;;;;;5068129;23;20162;-69
2022/09/29 08:49:19;;;;;;;3.73;2.47;;;9.50;99.90;;;;;;5068133;23;20172;-68
2022/09/29 08:51:30;;;;;;;3.40;2.60;;;9.40;99.90;;;;;;5067235;23;20154;-69
2022/09/29 08:53:34;;;;;;;2.90;2.60;;;9.20;99.90;;;;;;5068130;23;20529;-68
2022/09/29 08:55:45;;;;;;;2.47;2.20;;;9.40;99.90;;;;;;5068410;23;20154;-69
2022/09/29 08:57:47;;;;;;;3.30;2.60;;;9.40;99.90;;;;;;5068951;23;20161;-68
2022/09/29 08:59:58;;;;;;;2.63;2.30;;;9.30;99.90;;;;;;5042709;23;20163;-68
2022/09/29 09:02:27;;;;;;;3.13;2.17;;;9.20;99.90;;;;;;5041621;23;20766;-68
2022/09/29 09:04:32;;;;;;;3.10;2.30;;;9.20;99.90;;;;;;5068415;23;20162;-68
2022/09/29 09:06:56;;;;;;;2.07;1.87;;;9.30;99.90;;;;;;5068105;23;20162;-66
2022/09/29 09:09:15;;;;;;;2.17;1.80;;;9.60;99.90;;;;;;5042467;23;20668;-69
2022/09/29 09:11:47;;;;;;;2.47;1.80;;;9.50;99.70;;;;;;5067611;23;20165;-66
2022/09/29 09:14:12;;;;;;;2.87;2.33;;;9.60;99.90;;;;;;5067862;23;20196;-69
2022/09/29 09:16:25;;;;;;;2.60;1.80;;;9.50;99.90;;;;;;5068403;23;20854;-69
2022/09/29 09:18:49;;;;;;;1.70;1.60;;;9.90;99.90;;;;;;5069026;23;20166;-69
2022/09/29 09:21:26;;;;;;;2.03;1.70;;;9.90;99.70;;;;;;5041544;23;20171;-70
2022/09/29 09:23:45;;;;;;;2.10;1.77;;;9.40;99.90;;;;;;5044418;23;20185;-70
2022/09/29 09:25:53;;;;;;;2.17;1.50;;;9.50;99.90;;;;;;5068153;23;20154;-69
2022/09/29 09:28:14;;;;;;;1.70;1.30;;;9.70;99.50;;;;;;5066970;23;20162;-69
2022/09/29 09:30:17;;;;;;;2.80;1.50;;;10.00;99.00;;;;;;4979748;23;20171;-70
2022/09/29 09:32:24;;;;;;;1.60;1.50;;;10.00;99.70;;;;;;5035216;23;20175;-69
2022/09/29 09:34:33;;;;;;;2.37;1.70;;;10.10;99.90;;;;;;5019466;23;20172;-69
2022/09/29 09:36:59;;;;;;;1.80;1.50;;;10.50;99.90;;;;;;5043576;23;20163;-68
2022/09/29 09:39:05;;;;;;;2.47;1.87;;;10.50;99.00;;;;;;5044282;23;20163;-68
2022/09/29 09:41:08;;;;;;;2.40;1.70;;;10.50;97.70;;;;;;5043233;23;20169;-69
2022/09/29 09:43:17;;;;;;;2.53;1.60;;;10.30;97.10;;;;;;5018993;23;20218;-69
2022/09/29 09:45:31;;;;;;;2.27;1.70;;;10.30;99.10;;;;;;5016723;23;20167;-67
2022/09/29 09:47:41;;;;;;;3.43;1.40;;;10.40;98.50;;;;;;5044507;23;20193;-68
2022/09/29 09:49:49;;;;;;;2.17;1.70;;;10.50;97.00;;;;;;5044186;23;20222;-67
2022/09/29 09:52:01;;;;;;;3.63;1.67;;;10.60;96.10;;;;;;5043557;23;20163;-69
2022/09/29 09:54:10;;;;;;;2.70;2.10;;;10.40;96.20;;;;;;5043888;23;20261;-69
2022/09/29 09:56:32;;;;;;;2.30;1.83;;;10.50;96.00;;;;;;5044209;23;20589;-68
2022/09/29 09:58:47;;;;;;;1.90;1.70;;;10.30;96.90;;;;;;5018682;23;20171;-68
2022/09/29 10:01:02;;;;;;;2.80;1.90;;;10.20;98.50;;;;;;5043219;23;20155;-67
2022/09/29 10:03:06;;;;;;;3.63;1.70;;;10.30;98.10;;;;;;5043915;23;20183;-69
2022/09/29 10:05:12;;;;;;;1.63;1.40;;;10.50;98.70;;;;;;5044126;23;20167;-69
2022/09/29 10:07:12;;;;;;;3.30;1.97;;;10.60;98.90;;;;;;5042716;23;20166;-69
2022/09/29 10:09:14;;;;;;;2.70;1.80;;;10.50;99.80;;;;;;5042205;23;20163;-69
2022/09/29 10:11:17;;;;;;;3.03;1.80;;;10.60;99.40;;;;;;5015732;23;20179;-69
2022/09/29 10:13:19;;;;;;;2.00;1.80;;;10.50;99.20;;;;;;5041893;23;20186;-69
2022/09/29 10:15:50;;;;;;;3.70;2.40;;;10.80;99.30;;;;;;5042116;23;20500;-68
2022/09/29 10:18:30;;;;;;;3.23;2.63;;;11.10;97.00;;;;;;5044248;23;20176;-68
2022/09/29 10:20:36;;;;;;;4.67;2.10;;;10.80;97.80;;;;;;5035944;23;20174;-67
2022/09/29 10:22:36;;;;;;;1.73;1.63;;;10.80;96.90;;;;;;5043426;23;20222;-68
2022/09/29 10:24:37;;;;;;;1.87;1.63;;;10.90;95.30;;;;;;5044470;23;20652;-67
2022/09/29 10:26:40;;;;;;;1.70;1.60;;;10.70;94.60;;;;;;5044045;23;20159;-67
2022/09/29 10:28:49;;;;;;;1.80;1.50;;;10.90;95.20;;;;;;5043416;23;20188;-65
2022/09/29 10:30:52;;;;;;;3.47;1.77;;;11.10;97.00;;;;;;5043089;23;20613;-68
2022/09/29 10:32:58;;;;;;;1.93;1.53;;;11.30;95.90;;;;;;5049213;23;20197;-68
2022/09/29 10:35:05;;;;;;;2.93;1.93;;;12.00;95.10;;;;;;5041460;23;20220;-66
2022/09/29 10:37:34;;;;;;;2.40;1.70;;;11.60;92.10;;;;;;5067235;23;20221;-66
2022/09/29 10:39:42;;;;;;;1.77;1.67;;;11.50;93.10;;;;;;5067276;23;20209;-67
2022/09/29 10:41:52;;;;;;;2.47;1.50;;;11.50;93.60;;;;;;5067572;23;20190;-67
2022/09/29 10:43:53;;;;;;;1.87;1.70;;;11.40;92.40;;;;;;5068522;23;20291;-67
2022/09/29 10:45:57;;;;;;;2.67;1.70;;;11.40;92.30;;;;;;5068942;23;20154;-67
2022/09/29 10:47:57;;;;;;;2.93;1.83;;;11.60;93.70;;;;;;5068852;23;20612;-67
2022/09/29 10:50:13;;;;;;;1.63;1.50;;;11.60;91.20;;;;;;5065662;23;20200;-69
2022/09/29 10:52:24;;;;;;;1.67;1.40;;;11.70;92.60;;;;;;5065800;23;20193;-67
2022/09/29 10:54:26;;;;;;;2.23;1.40;;;11.60;92.90;;;;;;5065975;23;20515;-67
2022/09/29 10:56:28;;;;;;;1.30;1.20;;;11.30;91.40;;;;;;5065920;23;20233;-67
2022/09/29 10:58:41;;;;;;;1.23;1.13;;;11.30;92.50;;;;;;5067504;23;20162;-68
2022/09/29 11:00:42;;;;;;;1.97;1.27;;;11.50;91.20;;;;;;5065090;23;20515;-67
2022/09/29 11:02:45;;;;;;;2.00;1.80;;;11.30;91.10;;;;;;5039868;23;20214;-67